AVA159 SKRG-SEQM
Flight info
| Callsign | AVA159 |
|---|---|
| Flight time | 1h 7m |
| Altitude | 37000 |
| Route | ISVAT2B ISVAT DCT LIVOB UW1 ULQ DCT CLO DCT MER DCT SEKTA DCT GAVEK DCT IPI DCT 000219S0783041W |
| Aircraft | A320/M-SDE3FGHIRWY/LB1 |
Departure
| Time | 2026-05-06 00:27 |
|---|---|
| Airport | Jose Maria Córdova International Airport (SKRG) |
Arrival
| Time | 2026-05-06 01:35 |
|---|---|
| Airport | Mariscal Sucre International Airport (SEQM) |
| Time | Latitude | Longitude | Altitude | Speed | Heading |
|---|---|---|---|---|---|
| 2026-05-05 23:55 | 6.16966 | -75.42712 | 7016 ft | 3 kts | 49° |
| 2026-05-05 23:55 | 6.16969 | -75.42709 | 7020 ft | 3 kts | 47° |
| 2026-05-05 23:55 | 6.16986 | -75.42691 | 7018 ft | 3 kts | 44° |
| 2026-05-05 23:55 | 6.17005 | -75.42676 | 7016 ft | 3 kts | 37° |
| 2026-05-05 23:56 | 6.17002 | -75.42679 | 7019 ft | 8 kts | 22° |
| 2026-05-05 23:56 | 6.17018 | -75.42669 | 7016 ft | 9 kts | 49° |
| 2026-05-05 23:56 | 6.17085 | -75.42619 | 7019 ft | 6 kts | 19° |
| 2026-05-05 23:56 | 6.17171 | -75.42620 | 7020 ft | 12 kts | 357° |
| 2026-05-05 23:57 | 6.17223 | -75.42619 | 7016 ft | 9 kts | 347° |
| 2026-05-05 23:57 | 6.17226 | -75.42657 | 7019 ft | 7 kts | 252° |
| 2026-05-05 23:57 | 6.17214 | -75.42695 | 7016 ft | 0 kts | 252° |
| 2026-05-06 00:16 | 6.17218 | -75.42683 | 7018 ft | 3 kts | 252° |
| 2026-05-06 00:17 | 6.17225 | -75.42659 | 7016 ft | 3 kts | 249° |
| 2026-05-06 00:17 | 6.17235 | -75.42637 | 7020 ft | 3 kts | 237° |
| 2026-05-06 00:17 | 6.17250 | -75.42621 | 7017 ft | 3 kts | 194° |
| 2026-05-06 00:17 | 6.17271 | -75.42620 | 7020 ft | 3 kts | 179° |
| 2026-05-06 00:18 | 6.17295 | -75.42621 | 7016 ft | 3 kts | 168° |
| 2026-05-06 00:18 | 6.17316 | -75.42630 | 7017 ft | 3 kts | 129° |
| 2026-05-06 00:18 | 6.17328 | -75.42647 | 7016 ft | 3 kts | 124° |
| 2026-05-06 00:18 | 6.17342 | -75.42667 | 7016 ft | 3 kts | 124° |
| 2026-05-06 00:19 | 6.17355 | -75.42688 | 7019 ft | 3 kts | 124° |
| 2026-05-06 00:19 | 6.17368 | -75.42706 | 7016 ft | 1 kts | 123° |
| 2026-05-06 00:21 | 6.17345 | -75.42671 | 7020 ft | 12 kts | 123° |
| 2026-05-06 00:21 | 6.17281 | -75.42619 | 7019 ft | 12 kts | 170° |
| 2026-05-06 00:22 | 6.17198 | -75.42605 | 7019 ft | 12 kts | 131° |
| 2026-05-06 00:22 | 6.17190 | -75.42525 | 7017 ft | 14 kts | 89° |
| 2026-05-06 00:22 | 6.17117 | -75.42487 | 7017 ft | 15 kts | 181° |
| 2026-05-06 00:22 | 6.16980 | -75.42486 | 7019 ft | 25 kts | 179° |
| 2026-05-06 00:23 | 6.16797 | -75.42486 | 7014 ft | 28 kts | 180° |
| 2026-05-06 00:23 | 6.16594 | -75.42484 | 7004 ft | 30 kts | 179° |
| 2026-05-06 00:23 | 6.16394 | -75.42483 | 6992 ft | 25 kts | 180° |
| 2026-05-06 00:23 | 6.16204 | -75.42481 | 6981 ft | 29 kts | 179° |
| 2026-05-06 00:24 | 6.16012 | -75.42480 | 6983 ft | 25 kts | 180° |
| 2026-05-06 00:24 | 6.15832 | -75.42479 | 6981 ft | 27 kts | 179° |
| 2026-05-06 00:24 | 6.15640 | -75.42478 | 6980 ft | 28 kts | 180° |
| 2026-05-06 00:24 | 6.15443 | -75.42476 | 6979 ft | 29 kts | 179° |
| 2026-05-06 00:25 | 6.15242 | -75.42475 | 6978 ft | 29 kts | 180° |
| 2026-05-06 00:25 | 6.15040 | -75.42474 | 6977 ft | 28 kts | 179° |
| 2026-05-06 00:25 | 6.14909 | -75.42460 | 6977 ft | 13 kts | 139° |
| 2026-05-06 00:25 | 6.14904 | -75.42370 | 6977 ft | 14 kts | 78° |
| 2026-05-06 00:26 | 6.14975 | -75.42308 | 6977 ft | 14 kts | 25° |
| 2026-05-06 00:26 | 6.15076 | -75.42304 | 6979 ft | 18 kts | 359° |
| 2026-05-06 00:26 | 6.15415 | -75.42306 | 6980 ft | 84 kts | 359° |
| 2026-05-06 00:26 | 6.16213 | -75.42312 | 6984 ft | 144 kts | 360° |
| 2026-05-06 00:27 | 6.17356 | -75.42317 | 7095 ft | 182 kts | 0° |
| 2026-05-06 00:27 | 6.18619 | -75.42296 | 7800 ft | 181 kts | 1° |
| 2026-05-06 00:27 | 6.19883 | -75.42258 | 8548 ft | 182 kts | 2° |
| 2026-05-06 00:27 | 6.21140 | -75.42211 | 9066 ft | 185 kts | 2° |
| 2026-05-06 00:28 | 6.22465 | -75.41954 | 9205 ft | 205 kts | 29° |
| 2026-05-06 00:28 | 6.23452 | -75.40904 | 9538 ft | 215 kts | 68° |
| 2026-05-06 00:28 | 6.23563 | -75.39424 | 10038 ft | 217 kts | 107° |
| 2026-05-06 00:28 | 6.22769 | -75.38141 | 10571 ft | 219 kts | 131° |
| 2026-05-06 00:29 | 6.21755 | -75.36998 | 11153 ft | 219 kts | 131° |
| 2026-05-06 00:29 | 6.20735 | -75.35863 | 11717 ft | 219 kts | 131° |
| 2026-05-06 00:29 | 6.19714 | -75.34723 | 12264 ft | 220 kts | 131° |
| 2026-05-06 00:29 | 6.18668 | -75.33601 | 12782 ft | 221 kts | 140° |
| 2026-05-06 00:30 | 6.17280 | -75.32991 | 13258 ft | 227 kts | 173° |
| 2026-05-06 00:30 | 6.15679 | -75.33275 | 13477 ft | 248 kts | 202° |
| 2026-05-06 00:30 | 6.14052 | -75.34055 | 13590 ft | 271 kts | 204° |
| 2026-05-06 00:30 | 6.12272 | -75.34927 | 13784 ft | 295 kts | 204° |
| 2026-05-06 00:31 | 6.10368 | -75.35863 | 14127 ft | 311 kts | 204° |
| 2026-05-06 00:31 | 6.08398 | -75.36829 | 14747 ft | 318 kts | 204° |
| 2026-05-06 00:31 | 6.06396 | -75.37806 | 15415 ft | 321 kts | 204° |
| 2026-05-06 00:31 | 6.04370 | -75.38788 | 16069 ft | 325 kts | 204° |
| 2026-05-06 00:32 | 6.02319 | -75.39777 | 16715 ft | 329 kts | 204° |
| 2026-05-06 00:32 | 6.00232 | -75.40782 | 17193 ft | 339 kts | 204° |
| 2026-05-06 00:32 | 5.98043 | -75.41829 | 17323 ft | 358 kts | 202° |
| 2026-05-06 00:32 | 5.95695 | -75.42844 | 17451 ft | 376 kts | 200° |
| 2026-05-06 00:33 | 5.93211 | -75.43818 | 17694 ft | 389 kts | 199° |
| 2026-05-06 00:33 | 5.90690 | -75.44756 | 18166 ft | 394 kts | 198° |
| 2026-05-06 00:33 | 5.88098 | -75.45708 | 18685 ft | 398 kts | 199° |
| 2026-05-06 00:33 | 5.85491 | -75.46675 | 19229 ft | 402 kts | 199° |
| 2026-05-06 00:34 | 5.82855 | -75.47665 | 19759 ft | 406 kts | 199° |
| 2026-05-06 00:34 | 5.80209 | -75.48672 | 20286 ft | 409 kts | 199° |
| 2026-05-06 00:34 | 5.77539 | -75.49696 | 20781 ft | 412 kts | 200° |
| 2026-05-06 00:34 | 5.74853 | -75.50735 | 21273 ft | 415 kts | 200° |
| 2026-05-06 00:35 | 5.72142 | -75.51786 | 21739 ft | 418 kts | 200° |
| 2026-05-06 00:35 | 5.69416 | -75.52839 | 22188 ft | 421 kts | 200° |
| 2026-05-06 00:35 | 5.66669 | -75.53896 | 22613 ft | 424 kts | 200° |
| 2026-05-06 00:35 | 5.63903 | -75.54960 | 23026 ft | 427 kts | 200° |
| 2026-05-06 00:36 | 5.61114 | -75.56031 | 23420 ft | 430 kts | 200° |
| 2026-05-06 00:36 | 5.58309 | -75.57109 | 23805 ft | 433 kts | 200° |
| 2026-05-06 00:36 | 5.55486 | -75.58195 | 24179 ft | 436 kts | 200° |
| 2026-05-06 00:36 | 5.52644 | -75.59284 | 24546 ft | 438 kts | 200° |
| 2026-05-06 00:37 | 5.49787 | -75.60378 | 24904 ft | 441 kts | 200° |
| 2026-05-06 00:37 | 5.46915 | -75.61478 | 25253 ft | 443 kts | 200° |
| 2026-05-06 00:37 | 5.44065 | -75.62571 | 25582 ft | 446 kts | 200° |
| 2026-05-06 00:37 | 5.41161 | -75.63688 | 25911 ft | 448 kts | 200° |
| 2026-05-06 00:38 | 5.38237 | -75.64812 | 26241 ft | 450 kts | 200° |
| 2026-05-06 00:38 | 5.35304 | -75.65941 | 26548 ft | 453 kts | 200° |
| 2026-05-06 00:38 | 5.32351 | -75.67076 | 26850 ft | 455 kts | 200° |
| 2026-05-06 00:38 | 5.29388 | -75.68212 | 27139 ft | 457 kts | 200° |
| 2026-05-06 00:39 | 5.26413 | -75.69354 | 27427 ft | 459 kts | 200° |
| 2026-05-06 00:39 | 5.23423 | -75.70502 | 27714 ft | 461 kts | 200° |
| 2026-05-06 00:39 | 5.20418 | -75.71652 | 28004 ft | 463 kts | 200° |
| 2026-05-06 00:39 | 5.17402 | -75.72805 | 28277 ft | 465 kts | 200° |
| 2026-05-06 00:40 | 5.14367 | -75.73968 | 28509 ft | 468 kts | 200° |
| 2026-05-06 00:40 | 5.11324 | -75.75137 | 28774 ft | 470 kts | 200° |
| 2026-05-06 00:40 | 5.08269 | -75.76311 | 29018 ft | 471 kts | 200° |
| 2026-05-06 00:40 | 5.05196 | -75.77492 | 29248 ft | 474 kts | 200° |
| 2026-05-06 00:41 | 5.02110 | -75.78677 | 29468 ft | 476 kts | 199° |
| 2026-05-06 00:41 | 4.99012 | -75.79866 | 29683 ft | 478 kts | 199° |
| 2026-05-06 00:41 | 4.95896 | -75.81062 | 29912 ft | 480 kts | 199° |
| 2026-05-06 00:41 | 4.92773 | -75.82262 | 30133 ft | 481 kts | 199° |
| 2026-05-06 00:42 | 4.89646 | -75.83458 | 30329 ft | 483 kts | 199° |
| 2026-05-06 00:42 | 4.86504 | -75.84657 | 30512 ft | 484 kts | 199° |
| 2026-05-06 00:42 | 4.83355 | -75.85859 | 30765 ft | 484 kts | 199° |
| 2026-05-06 00:42 | 4.80212 | -75.87060 | 31032 ft | 483 kts | 199° |
| 2026-05-06 00:43 | 4.77071 | -75.88260 | 31289 ft | 482 kts | 199° |
| 2026-05-06 00:43 | 4.73943 | -75.89457 | 31551 ft | 482 kts | 199° |
| 2026-05-06 00:43 | 4.70809 | -75.90659 | 31808 ft | 481 kts | 199° |
| 2026-05-06 00:43 | 4.67721 | -75.91845 | 32066 ft | 481 kts | 199° |
| 2026-05-06 00:44 | 4.64564 | -75.93061 | 32333 ft | 480 kts | 200° |
| 2026-05-06 00:44 | 4.61485 | -75.94247 | 32599 ft | 479 kts | 199° |
| 2026-05-06 00:44 | 4.58368 | -75.95443 | 32862 ft | 478 kts | 199° |
| 2026-05-06 00:44 | 4.55259 | -75.96633 | 33118 ft | 478 kts | 199° |
| 2026-05-06 00:45 | 4.52152 | -75.97823 | 33376 ft | 478 kts | 199° |
| 2026-05-06 00:45 | 4.49050 | -75.99010 | 33647 ft | 477 kts | 199° |
| 2026-05-06 00:45 | 4.45953 | -76.00195 | 33919 ft | 476 kts | 199° |
| 2026-05-06 00:45 | 4.42860 | -76.01379 | 34186 ft | 476 kts | 199° |
| 2026-05-06 00:46 | 4.39768 | -76.02561 | 34457 ft | 475 kts | 200° |
| 2026-05-06 00:46 | 4.36685 | -76.03736 | 34745 ft | 473 kts | 199° |
| 2026-05-06 00:46 | 4.33602 | -76.04910 | 35004 ft | 473 kts | 200° |
| 2026-05-06 00:46 | 4.30529 | -76.06081 | 35261 ft | 472 kts | 200° |
| 2026-05-06 00:47 | 4.27464 | -76.07251 | 35506 ft | 471 kts | 200° |
| 2026-05-06 00:47 | 4.24406 | -76.08420 | 35752 ft | 470 kts | 200° |
| 2026-05-06 00:47 | 4.21347 | -76.09589 | 36005 ft | 469 kts | 200° |
| 2026-05-06 00:47 | 4.18310 | -76.10752 | 36237 ft | 468 kts | 200° |
| 2026-05-06 00:48 | 4.15313 | -76.11901 | 36454 ft | 466 kts | 200° |
| 2026-05-06 00:48 | 4.12274 | -76.13062 | 36650 ft | 466 kts | 200° |
| 2026-05-06 00:48 | 4.09247 | -76.14219 | 36873 ft | 464 kts | 200° |
| 2026-05-06 00:48 | 4.06233 | -76.15372 | 36996 ft | 462 kts | 200° |
| 2026-05-06 00:49 | 4.03238 | -76.16521 | 37009 ft | 459 kts | 201° |
| 2026-05-06 00:49 | 3.97289 | -76.18808 | 37008 ft | 456 kts | 200° |
| 2026-05-06 00:50 | 3.91360 | -76.21068 | 37008 ft | 455 kts | 200° |
| 2026-05-06 00:50 | 3.85439 | -76.23324 | 36998 ft | 455 kts | 200° |
| 2026-05-06 00:51 | 3.79554 | -76.25578 | 36988 ft | 455 kts | 200° |
| 2026-05-06 00:51 | 3.73633 | -76.27836 | 36990 ft | 455 kts | 200° |
| 2026-05-06 00:52 | 3.67708 | -76.30098 | 36997 ft | 455 kts | 200° |
| 2026-05-06 00:52 | 3.61780 | -76.32367 | 37003 ft | 456 kts | 200° |
| 2026-05-06 00:53 | 3.55844 | -76.34631 | 37006 ft | 456 kts | 200° |
| 2026-05-06 00:53 | 3.49896 | -76.36901 | 37007 ft | 457 kts | 200° |
| 2026-05-06 00:54 | 3.43956 | -76.39175 | 37011 ft | 457 kts | 200° |
| 2026-05-06 00:54 | 3.39086 | -76.41219 | 37011 ft | 457 kts | 208° |
| 2026-05-06 00:55 | 3.32655 | -76.44882 | 37015 ft | 457 kts | 209° |
| 2026-05-06 00:55 | 3.27120 | -76.48032 | 37018 ft | 457 kts | 209° |
| 2026-05-06 00:56 | 3.22528 | -76.50646 | 37017 ft | 456 kts | 209° |
| 2026-05-06 00:56 | 3.17010 | -76.53792 | 37015 ft | 456 kts | 209° |
| 2026-05-06 00:57 | 3.11488 | -76.56936 | 37018 ft | 456 kts | 209° |
| 2026-05-06 00:57 | 3.05968 | -76.60081 | 37024 ft | 456 kts | 209° |
| 2026-05-06 00:58 | 3.00445 | -76.63224 | 37031 ft | 456 kts | 209° |
| 2026-05-06 00:58 | 2.94921 | -76.66367 | 37044 ft | 456 kts | 209° |
| 2026-05-06 00:59 | 2.89402 | -76.69508 | 37053 ft | 456 kts | 209° |
| 2026-05-06 00:59 | 2.83918 | -76.72634 | 37068 ft | 457 kts | 209° |
| 2026-05-06 01:00 | 2.78397 | -76.75783 | 37085 ft | 456 kts | 209° |
| 2026-05-06 01:00 | 2.72877 | -76.78928 | 37111 ft | 457 kts | 209° |
| 2026-05-06 01:01 | 2.67340 | -76.82076 | 37115 ft | 457 kts | 209° |
| 2026-05-06 01:01 | 2.61810 | -76.85219 | 37128 ft | 457 kts | 209° |
| 2026-05-06 01:02 | 2.56280 | -76.88368 | 37135 ft | 457 kts | 209° |
| 2026-05-06 01:02 | 2.50750 | -76.91517 | 37140 ft | 457 kts | 209° |
| 2026-05-06 01:03 | 2.45224 | -76.94660 | 37144 ft | 457 kts | 209° |
| 2026-05-06 01:03 | 2.39703 | -76.97798 | 37143 ft | 456 kts | 209° |
| 2026-05-06 01:04 | 2.34183 | -77.00933 | 37139 ft | 456 kts | 209° |
| 2026-05-06 01:04 | 2.28669 | -77.04068 | 37131 ft | 456 kts | 209° |
| 2026-05-06 01:05 | 2.23156 | -77.07208 | 37125 ft | 456 kts | 209° |
| 2026-05-06 01:05 | 2.17644 | -77.10348 | 37122 ft | 456 kts | 209° |
| 2026-05-06 01:06 | 2.12128 | -77.13483 | 37113 ft | 455 kts | 209° |
| 2026-05-06 01:06 | 2.06625 | -77.16610 | 37110 ft | 455 kts | 209° |
| 2026-05-06 01:07 | 2.01158 | -77.19718 | 37112 ft | 454 kts | 209° |
| 2026-05-06 01:07 | 1.95658 | -77.22844 | 37106 ft | 454 kts | 209° |
| 2026-05-06 01:08 | 1.90169 | -77.25968 | 37112 ft | 454 kts | 209° |
| 2026-05-06 01:08 | 1.84678 | -77.29084 | 37122 ft | 454 kts | 209° |
| 2026-05-06 01:09 | 1.79186 | -77.32199 | 37150 ft | 454 kts | 209° |
| 2026-05-06 01:09 | 1.73696 | -77.35318 | 37171 ft | 454 kts | 209° |
| 2026-05-06 01:10 | 1.68208 | -77.38435 | 37179 ft | 454 kts | 210° |
| 2026-05-06 01:10 | 1.62724 | -77.41557 | 37197 ft | 453 kts | 210° |
| 2026-05-06 01:11 | 1.57248 | -77.44681 | 37203 ft | 453 kts | 210° |
| 2026-05-06 01:11 | 1.51763 | -77.47794 | 37205 ft | 452 kts | 209° |
| 2026-05-06 01:12 | 1.46313 | -77.50882 | 37204 ft | 453 kts | 210° |
| 2026-05-06 01:12 | 1.40836 | -77.53991 | 37208 ft | 453 kts | 210° |
| 2026-05-06 01:13 | 1.35353 | -77.57106 | 37215 ft | 453 kts | 209° |
| 2026-05-06 01:13 | 1.29867 | -77.60220 | 37222 ft | 453 kts | 210° |
| 2026-05-06 01:14 | 1.21653 | -77.64884 | 37261 ft | 453 kts | 210° |
| 2026-05-06 01:14 | 1.16176 | -77.67998 | 37286 ft | 453 kts | 210° |
| 2026-05-06 01:15 | 1.10729 | -77.71098 | 37316 ft | 454 kts | 210° |
| 2026-05-06 01:15 | 1.05227 | -77.74222 | 37350 ft | 454 kts | 210° |
| 2026-05-06 01:16 | 0.99733 | -77.77337 | 37382 ft | 454 kts | 210° |
| 2026-05-06 01:16 | 0.94241 | -77.80453 | 37391 ft | 454 kts | 210° |
| 2026-05-06 01:17 | 0.88754 | -77.83563 | 37408 ft | 453 kts | 210° |
| 2026-05-06 01:17 | 0.83275 | -77.86677 | 37413 ft | 453 kts | 210° |
| 2026-05-06 01:18 | 0.78038 | -77.90150 | 37419 ft | 452 kts | 217° |
| 2026-05-06 01:18 | 0.73026 | -77.93895 | 37418 ft | 452 kts | 217° |
| 2026-05-06 01:19 | 0.67976 | -77.97655 | 37415 ft | 452 kts | 217° |
| 2026-05-06 01:19 | 0.62928 | -78.01408 | 37405 ft | 452 kts | 217° |
| 2026-05-06 01:20 | 0.57887 | -78.05158 | 37393 ft | 451 kts | 217° |
| 2026-05-06 01:20 | 0.55407 | -78.07079 | 37273 ft | 451 kts | 221° |
| 2026-05-06 01:20 | 0.53232 | -78.09357 | 36205 ft | 458 kts | 233° |
| 2026-05-06 01:21 | 0.51562 | -78.12093 | 35061 ft | 465 kts | 245° |
| 2026-05-06 01:21 | 0.50465 | -78.15136 | 34154 ft | 468 kts | 254° |
| 2026-05-06 01:21 | 0.49909 | -78.18364 | 32977 ft | 478 kts | 265° |
| 2026-05-06 01:21 | 0.49833 | -78.21714 | 31749 ft | 487 kts | 269° |
| 2026-05-06 01:22 | 0.49812 | -78.25124 | 30548 ft | 493 kts | 270° |
| 2026-05-06 01:22 | 0.49802 | -78.28570 | 29413 ft | 497 kts | 270° |
| 2026-05-06 01:22 | 0.49801 | -78.31960 | 28682 ft | 490 kts | 271° |
| 2026-05-06 01:22 | 0.49804 | -78.35354 | 27818 ft | 487 kts | 271° |
| 2026-05-06 01:23 | 0.49805 | -78.38726 | 26996 ft | 482 kts | 271° |
| 2026-05-06 01:23 | 0.49801 | -78.42054 | 26221 ft | 477 kts | 271° |
| 2026-05-06 01:23 | 0.49793 | -78.45355 | 25415 ft | 473 kts | 271° |
| 2026-05-06 01:23 | 0.49596 | -78.48623 | 24611 ft | 471 kts | 259° |
| 2026-05-06 01:24 | 0.48483 | -78.51666 | 23832 ft | 465 kts | 239° |
| 2026-05-06 01:24 | 0.46501 | -78.54122 | 23088 ft | 445 kts | 220° |
| 2026-05-06 01:24 | 0.43967 | -78.55760 | 22433 ft | 431 kts | 202° |
| 2026-05-06 01:24 | 0.41107 | -78.56565 | 21786 ft | 426 kts | 184° |
| 2026-05-06 01:25 | 0.38177 | -78.56515 | 21187 ft | 419 kts | 171° |
| 2026-05-06 01:25 | 0.35291 | -78.56158 | 20595 ft | 416 kts | 171° |
| 2026-05-06 01:25 | 0.32426 | -78.55792 | 20011 ft | 414 kts | 171° |
| 2026-05-06 01:25 | 0.29612 | -78.55424 | 19438 ft | 411 kts | 171° |
| 2026-05-06 01:26 | 0.26750 | -78.55050 | 18926 ft | 407 kts | 171° |
| 2026-05-06 01:26 | 0.23993 | -78.54695 | 18789 ft | 392 kts | 171° |
| 2026-05-06 01:26 | 0.21335 | -78.54360 | 18661 ft | 379 kts | 171° |
| 2026-05-06 01:26 | 0.18798 | -78.54043 | 18523 ft | 362 kts | 171° |
| 2026-05-06 01:27 | 0.16355 | -78.53736 | 18058 ft | 348 kts | 170° |
| 2026-05-06 01:27 | 0.14035 | -78.53206 | 17461 ft | 338 kts | 158° |
| 2026-05-06 01:27 | 0.11920 | -78.52260 | 16803 ft | 329 kts | 152° |
| 2026-05-06 01:27 | 0.09866 | -78.51269 | 16141 ft | 326 kts | 152° |
| 2026-05-06 01:28 | 0.07830 | -78.50290 | 15568 ft | 325 kts | 153° |
| 2026-05-06 01:28 | 0.05788 | -78.49311 | 15216 ft | 323 kts | 153° |
| 2026-05-06 01:28 | 0.03770 | -78.48344 | 14905 ft | 319 kts | 153° |
| 2026-05-06 01:28 | 0.01805 | -78.47400 | 14758 ft | 307 kts | 153° |
| 2026-05-06 01:29 | -0.00088 | -78.46493 | 14426 ft | 296 kts | 153° |
| 2026-05-06 01:29 | -0.01949 | -78.45652 | 13981 ft | 291 kts | 158° |
| 2026-05-06 01:29 | -0.03879 | -78.45051 | 13342 ft | 292 kts | 166° |
| 2026-05-06 01:29 | -0.05881 | -78.44726 | 12708 ft | 291 kts | 173° |
| 2026-05-06 01:30 | -0.07846 | -78.44545 | 12473 ft | 275 kts | 173° |
| 2026-05-06 01:30 | -0.09662 | -78.44369 | 12342 ft | 257 kts | 173° |
| 2026-05-06 01:30 | -0.11384 | -78.44195 | 12110 ft | 244 kts | 173° |
| 2026-05-06 01:30 | -0.13050 | -78.44022 | 11734 ft | 237 kts | 173° |
| 2026-05-06 01:31 | -0.14667 | -78.43854 | 11406 ft | 230 kts | 170° |
| 2026-05-06 01:31 | -0.16192 | -78.43451 | 11100 ft | 225 kts | 155° |
| 2026-05-06 01:31 | -0.17533 | -78.42680 | 10811 ft | 220 kts | 141° |
| 2026-05-06 01:31 | -0.18673 | -78.41679 | 10473 ft | 216 kts | 138° |
| 2026-05-06 01:32 | -0.19785 | -78.40691 | 10177 ft | 210 kts | 138° |
| 2026-05-06 01:32 | -0.20658 | -78.39580 | 9898 ft | 206 kts | 115° |
| 2026-05-06 01:32 | -0.20946 | -78.38205 | 9623 ft | 201 kts | 88° |
| 2026-05-06 01:32 | -0.20611 | -78.36891 | 9344 ft | 190 kts | 63° |
| 2026-05-06 01:33 | -0.19820 | -78.35917 | 9105 ft | 174 kts | 39° |
| 2026-05-06 01:33 | -0.18804 | -78.35362 | 8871 ft | 161 kts | 18° |
| 2026-05-06 01:33 | -0.17720 | -78.35213 | 8652 ft | 155 kts | 358° |
| 2026-05-06 01:33 | -0.16642 | -78.35265 | 8436 ft | 154 kts | 358° |
| 2026-05-06 01:34 | -0.15590 | -78.35306 | 8274 ft | 153 kts | 359° |
| 2026-05-06 01:34 | -0.14527 | -78.35346 | 8102 ft | 153 kts | 357° |
| 2026-05-06 01:34 | -0.13481 | -78.35398 | 7989 ft | 140 kts | 359° |
| 2026-05-06 01:34 | -0.12760 | -78.35428 | 7989 ft | 61 kts | 358° |
| 2026-05-06 01:35 | -0.12528 | -78.35488 | 7987 ft | 25 kts | 328° |
| 2026-05-06 01:35 | -0.12466 | -78.35527 | 7986 ft | 7 kts | 328° |
| 2026-05-06 01:35 | -0.12425 | -78.35553 | 7985 ft | 5 kts | 328° |
| 2026-05-06 01:35 | -0.12400 | -78.35569 | 7985 ft | 3 kts | 327° |
| 2026-05-06 01:36 | -0.12382 | -78.35580 | 7985 ft | 5 kts | 327° |
| 2026-05-06 01:36 | -0.12354 | -78.35625 | 7985 ft | 8 kts | 277° |
| 2026-05-06 01:36 | -0.12360 | -78.35678 | 7986 ft | 7 kts | 268° |
| 2026-05-06 01:36 | -0.12362 | -78.35731 | 7985 ft | 10 kts | 268° |
| 2026-05-06 01:37 | -0.12364 | -78.35820 | 7989 ft | 13 kts | 273° |
| 2026-05-06 01:37 | -0.12297 | -78.35846 | 7984 ft | 12 kts | 0° |
| 2026-05-06 01:37 | -0.12255 | -78.35875 | 7984 ft | 6 kts | 275° |
| 2026-05-06 01:37 | -0.12256 | -78.35909 | 7984 ft | 4 kts | 268° |
| 2026-05-06 01:38 | -0.12257 | -78.35931 | 7984 ft | 2 kts | 267° |
| 2026-05-06 01:38 | -0.12258 | -78.35939 | 7984 ft | 0 kts | 267° |